sensor_id;sensor_type;location;lat;lon;timestamp;P1;durP1;ratioP1;P2;durP2;ratioP2
6928;SDS011;3504;52.616;13.238;2023-07-29T00:04:11;4.80;;;4.40;;
6928;SDS011;3504;52.616;13.238;2023-07-29T00:09:12;5.65;;;4.30;;
6928;SDS011;3504;52.616;13.238;2023-07-29T00:14:12;4.32;;;3.92;;
6928;SDS011;3504;52.616;13.238;2023-07-29T00:19:13;7.90;;;5.82;;
6928;SDS011;3504;52.616;13.238;2023-07-29T00:24:13;6.97;;;4.93;;
6928;SDS011;3504;52.616;13.238;2023-07-29T00:29:14;5.97;;;4.40;;
6928;SDS011;3504;52.616;13.238;2023-07-29T00:34:14;5.80;;;5.10;;
6928;SDS011;3504;52.616;13.238;2023-07-29T00:39:19;6.10;;;4.78;;
6928;SDS011;3504;52.616;13.238;2023-07-29T00:44:20;7.72;;;4.95;;
6928;SDS011;3504;52.616;13.238;2023-07-29T00:49:21;5.38;;;4.88;;
6928;SDS011;3504;52.616;13.238;2023-07-29T00:54:21;5.93;;;4.50;;
6928;SDS011;3504;52.616;13.238;2023-07-29T00:59:22;7.85;;;4.55;;
6928;SDS011;3504;52.616;13.238;2023-07-29T01:04:22;4.43;;;4.03;;
6928;SDS011;3504;52.616;13.238;2023-07-29T01:09:39;6.15;;;4.60;;
6928;SDS011;3504;52.616;13.238;2023-07-29T01:14:48;6.05;;;5.13;;
6928;SDS011;3504;52.616;13.238;2023-07-29T01:20:14;8.85;;;5.57;;
6928;SDS011;3504;52.616;13.238;2023-07-29T01:25:16;5.75;;;4.90;;
6928;SDS011;3504;52.616;13.238;2023-07-29T01:30:17;5.70;;;4.68;;
6928;SDS011;3504;52.616;13.238;2023-07-29T01:35:28;5.78;;;4.70;;
6928;SDS011;3504;52.616;13.238;2023-07-29T01:41:00;6.20;;;5.10;;
6928;SDS011;3504;52.616;13.238;2023-07-29T01:46:02;7.00;;;4.83;;
6928;SDS011;3504;52.616;13.238;2023-07-29T01:51:03;5.30;;;4.80;;
6928;SDS011;3504;52.616;13.238;2023-07-29T01:56:04;8.00;;;4.70;;
6928;SDS011;3504;52.616;13.238;2023-07-29T02:01:05;5.77;;;5.27;;
6928;SDS011;3504;52.616;13.238;2023-07-29T02:06:06;6.25;;;4.53;;
6928;SDS011;3504;52.616;13.238;2023-07-29T02:11:06;4.97;;;4.57;;
6928;SDS011;3504;52.616;13.238;2023-07-29T02:16:07;4.70;;;4.30;;
6928;SDS011;3504;52.616;13.238;2023-07-29T02:21:08;6.68;;;5.07;;
6928;SDS011;3504;52.616;13.238;2023-07-29T02:26:08;6.10;;;5.50;;
6928;SDS011;3504;52.616;13.238;2023-07-29T02:36:15;6.33;;;5.73;;
6928;SDS011;3504;52.616;13.238;2023-07-29T02:41:16;8.43;;;5.53;;
6928;SDS011;3504;52.616;13.238;2023-07-29T02:46:17;6.55;;;5.55;;
6928;SDS011;3504;52.616;13.238;2023-07-29T02:51:18;6.57;;;5.97;;
6928;SDS011;3504;52.616;13.238;2023-07-29T02:56:18;6.67;;;5.97;;
6928;SDS011;3504;52.616;13.238;2023-07-29T03:01:19;6.70;;;4.87;;
6928;SDS011;3504;52.616;13.238;2023-07-29T03:06:20;6.73;;;4.77;;
6928;SDS011;3504;52.616;13.238;2023-07-29T03:11:20;6.27;;;5.30;;
6928;SDS011;3504;52.616;13.238;2023-07-29T03:16:21;5.60;;;5.10;;
6928;SDS011;3504;52.616;13.238;2023-07-29T03:21:28;6.20;;;5.47;;
6928;SDS011;3504;52.616;13.238;2023-07-29T03:26:28;4.73;;;4.33;;
6928;SDS011;3504;52.616;13.238;2023-07-29T03:31:29;6.07;;;5.27;;
6928;SDS011;3504;52.616;13.238;2023-07-29T03:36:30;7.23;;;5.53;;
6928;SDS011;3504;52.616;13.238;2023-07-29T03:41:30;7.77;;;5.40;;
6928;SDS011;3504;52.616;13.238;2023-07-29T03:46:31;9.03;;;6.20;;
6928;SDS011;3504;52.616;13.238;2023-07-29T03:51:31;7.50;;;6.73;;
6928;SDS011;3504;52.616;13.238;2023-07-29T03:56:32;7.53;;;6.77;;
6928;SDS011;3504;52.616;13.238;2023-07-29T04:01:35;9.03;;;7.60;;
6928;SDS011;3504;52.616;13.238;2023-07-29T04:06:36;9.10;;;7.30;;
6928;SDS011;3504;52.616;13.238;2023-07-29T04:11:36;12.40;;;7.77;;
6928;SDS011;3504;52.616;13.238;2023-07-29T04:16:37;10.13;;;8.10;;
6928;SDS011;3504;52.616;13.238;2023-07-29T04:21:37;7.87;;;6.60;;
6928;SDS011;3504;52.616;13.238;2023-07-29T04:26:38;7.90;;;7.20;;
6928;SDS011;3504;52.616;13.238;2023-07-29T04:31:39;9.40;;;8.50;;
6928;SDS011;3504;52.616;13.238;2023-07-29T04:36:40;9.47;;;7.60;;
6928;SDS011;3504;52.616;13.238;2023-07-29T04:41:40;8.93;;;7.60;;
6928;SDS011;3504;52.616;13.238;2023-07-29T04:46:41;9.47;;;6.90;;
6928;SDS011;3504;52.616;13.238;2023-07-29T04:51:41;8.93;;;7.03;;
6928;SDS011;3504;52.616;13.238;2023-07-29T04:56:42;9.00;;;8.10;;
6928;SDS011;3504;52.616;13.238;2023-07-29T05:01:43;10.35;;;8.52;;
6928;SDS011;3504;52.616;13.238;2023-07-29T05:06:43;11.68;;;10.43;;
6928;SDS011;3504;52.616;13.238;2023-07-29T05:11:44;10.38;;;8.80;;
6928;SDS011;3504;52.616;13.238;2023-07-29T05:16:45;11.90;;;10.70;;
6928;SDS011;3504;52.616;13.238;2023-07-29T05:21:46;12.23;;;11.00;;
6928;SDS011;3504;52.616;13.238;2023-07-29T05:26:47;14.60;;;11.02;;
6928;SDS011;3504;52.616;13.238;2023-07-29T05:31:47;14.15;;;10.40;;
6928;SDS011;3504;52.616;13.238;2023-07-29T05:36:48;11.25;;;10.10;;
6928;SDS011;3504;52.616;13.238;2023-07-29T05:41:48;11.60;;;10.40;;
6928;SDS011;3504;52.616;13.238;2023-07-29T05:46:49;15.75;;;11.15;;
6928;SDS011;3504;52.616;13.238;2023-07-29T05:51:49;11.05;;;9.98;;
6928;SDS011;3504;52.616;13.238;2023-07-29T05:56:51;12.02;;;10.88;;
6928;SDS011;3504;52.616;13.238;2023-07-29T06:01:52;11.65;;;10.48;;
6928;SDS011;3504;52.616;13.238;2023-07-29T06:06:52;9.15;;;8.23;;
6928;SDS011;3504;52.616;13.238;2023-07-29T06:11:55;11.35;;;10.25;;
6928;SDS011;3504;52.616;13.238;2023-07-29T06:16:56;9.80;;;8.90;;
6928;SDS011;3504;52.616;13.238;2023-07-29T06:21:56;8.77;;;7.82;;
6928;SDS011;3504;52.616;13.238;2023-07-29T06:26:57;7.68;;;6.97;;
6928;SDS011;3504;52.616;13.238;2023-07-29T06:31:58;9.13;;;7.55;;
6928;SDS011;3504;52.616;13.238;2023-07-29T06:36:58;7.05;;;6.45;;
6928;SDS011;3504;52.616;13.238;2023-07-29T06:41:59;7.57;;;6.80;;
6928;SDS011;3504;52.616;13.238;2023-07-29T06:46:59;7.40;;;6.72;;
6928;SDS011;3504;52.616;13.238;2023-07-29T06:52:00;7.80;;;6.93;;
6928;SDS011;3504;52.616;13.238;2023-07-29T06:57:01;9.98;;;7.00;;
6928;SDS011;3504;52.616;13.238;2023-07-29T07:02:01;7.78;;;7.00;;
6928;SDS011;3504;52.616;13.238;2023-07-29T07:07:02;10.10;;;6.78;;
6928;SDS011;3504;52.616;13.238;2023-07-29T07:12:02;8.88;;;6.45;;
6928;SDS011;3504;52.616;13.238;2023-07-29T07:17:03;7.45;;;6.45;;
6928;SDS011;3504;52.616;13.238;2023-07-29T07:22:04;7.63;;;6.80;;
6928;SDS011;3504;52.616;13.238;2023-07-29T07:27:04;7.63;;;6.93;;
6928;SDS011;3504;52.616;13.238;2023-07-29T07:32:05;7.13;;;6.50;;
6928;SDS011;3504;52.616;13.238;2023-07-29T07:37:06;9.50;;;6.93;;
6928;SDS011;3504;52.616;13.238;2023-07-29T07:42:06;7.47;;;6.78;;
6928;SDS011;3504;52.616;13.238;2023-07-29T07:47:07;7.22;;;6.57;;
6928;SDS011;3504;52.616;13.238;2023-07-29T07:52:07;7.38;;;6.70;;
6928;SDS011;3504;52.616;13.238;2023-07-29T07:57:08;6.65;;;6.05;;
6928;SDS011;3504;52.616;13.238;2023-07-29T08:02:08;6.40;;;5.80;;
6928;SDS011;3504;52.616;13.238;2023-07-29T08:07:09;6.30;;;5.80;;
6928;SDS011;3504;52.616;13.238;2023-07-29T08:12:09;6.10;;;5.32;;
6928;SDS011;3504;52.616;13.238;2023-07-29T08:17:10;6.05;;;5.43;;
6928;SDS011;3504;52.616;13.238;2023-07-29T08:22:10;6.20;;;5.70;;
6928;SDS011;3504;52.616;13.238;2023-07-29T08:27:11;5.75;;;5.25;;
6928;SDS011;3504;52.616;13.238;2023-07-29T08:32:11;5.18;;;4.70;;
6928;SDS011;3504;52.616;13.238;2023-07-29T08:37:12;4.85;;;4.45;;
6928;SDS011;3504;52.616;13.238;2023-07-29T08:42:13;5.15;;;4.65;;
6928;SDS011;3504;52.616;13.238;2023-07-29T08:47:18;5.22;;;4.13;;
6928;SDS011;3504;52.616;13.238;2023-07-29T08:52:19;3.65;;;3.35;;
6928;SDS011;3504;52.616;13.238;2023-07-29T08:57:20;5.55;;;4.00;;
6928;SDS011;3504;52.616;13.238;2023-07-29T09:02:22;4.10;;;3.80;;
6928;SDS011;3504;52.616;13.238;2023-07-29T09:07:23;5.22;;;3.65;;
6928;SDS011;3504;52.616;13.238;2023-07-29T09:12:24;4.38;;;4.07;;
6928;SDS011;3504;52.616;13.238;2023-07-29T09:17:25;5.15;;;4.00;;
6928;SDS011;3504;52.616;13.238;2023-07-29T09:22:26;6.35;;;4.00;;
6928;SDS011;3504;52.616;13.238;2023-07-29T09:27:28;3.63;;;3.40;;
6928;SDS011;3504;52.616;13.238;2023-07-29T09:32:31;4.25;;;3.70;;
6928;SDS011;3504;52.616;13.238;2023-07-29T09:37:32;4.47;;;4.07;;
6928;SDS011;3504;52.616;13.238;2023-07-29T09:42:32;3.42;;;3.15;;
6928;SDS011;3504;52.616;13.238;2023-07-29T09:47:33;4.30;;;4.00;;
6928;SDS011;3504;52.616;13.238;2023-07-29T09:52:34;4.18;;;3.88;;
6928;SDS011;3504;52.616;13.238;2023-07-29T09:57:34;4.10;;;3.40;;
6928;SDS011;3504;52.616;13.238;2023-07-29T10:02:36;3.90;;;3.60;;
6928;SDS011;3504;52.616;13.238;2023-07-29T10:07:39;3.47;;;3.17;;
6928;SDS011;3504;52.616;13.238;2023-07-29T10:12:40;4.85;;;3.97;;
6928;SDS011;3504;52.616;13.238;2023-07-29T10:17:42;3.72;;;3.42;;
6928;SDS011;3504;52.616;13.238;2023-07-29T10:22:43;4.43;;;3.88;;
6928;SDS011;3504;52.616;13.238;2023-07-29T10:27:49;4.03;;;3.65;;
6928;SDS011;3504;52.616;13.238;2023-07-29T10:32:55;4.85;;;4.32;;
6928;SDS011;3504;52.616;13.238;2023-07-29T10:38:03;6.35;;;4.90;;
6928;SDS011;3504;52.616;13.238;2023-07-29T10:43:12;10.07;;;6.10;;
6928;SDS011;3504;52.616;13.238;2023-07-29T10:53:33;9.55;;;4.20;;
6928;SDS011;3504;52.616;13.238;2023-07-29T10:58:34;5.47;;;2.90;;
6928;SDS011;3504;52.616;13.238;2023-07-29T11:03:34;3.97;;;2.78;;
6928;SDS011;3504;52.616;13.238;2023-07-29T11:08:34;3.75;;;2.83;;
6928;SDS011;3504;52.616;13.238;2023-07-29T11:13:35;7.40;;;3.00;;
6928;SDS011;3504;52.616;13.238;2023-07-29T11:18:37;7.25;;;3.90;;
6928;SDS011;3504;52.616;13.238;2023-07-29T11:23:39;3.58;;;2.40;;
6928;SDS011;3504;52.616;13.238;2023-07-29T11:28:40;4.50;;;2.47;;
6928;SDS011;3504;52.616;13.238;2023-07-29T11:33:40;4.43;;;2.90;;
6928;SDS011;3504;52.616;13.238;2023-07-29T11:38:41;7.47;;;3.80;;
6928;SDS011;3504;52.616;13.238;2023-07-29T11:43:41;8.07;;;5.13;;
6928;SDS011;3504;52.616;13.238;2023-07-29T11:48:44;11.98;;;9.02;;
6928;SDS011;3504;52.616;13.238;2023-07-29T11:53:45;6.55;;;4.40;;
6928;SDS011;3504;52.616;13.238;2023-07-29T11:58:45;5.90;;;2.80;;
6928;SDS011;3504;52.616;13.238;2023-07-29T12:03:46;3.90;;;2.72;;
6928;SDS011;3504;52.616;13.238;2023-07-29T12:08:47;4.20;;;2.92;;
6928;SDS011;3504;52.616;13.238;2023-07-29T12:13:52;4.35;;;3.25;;
6928;SDS011;3504;52.616;13.238;2023-07-29T12:18:53;4.50;;;4.10;;
6928;SDS011;3504;52.616;13.238;2023-07-29T12:23:54;5.50;;;4.03;;
6928;SDS011;3504;52.616;13.238;2023-07-29T12:28:55;4.88;;;4.10;;
6928;SDS011;3504;52.616;13.238;2023-07-29T12:33:56;5.75;;;4.60;;
6928;SDS011;3504;52.616;13.238;2023-07-29T12:38:59;5.72;;;5.13;;
6928;SDS011;3504;52.616;13.238;2023-07-29T12:44:00;5.53;;;4.93;;
6928;SDS011;3504;52.616;13.238;2023-07-29T12:49:00;6.68;;;5.97;;
6928;SDS011;3504;52.616;13.238;2023-07-29T12:54:01;7.53;;;5.30;;
6928;SDS011;3504;52.616;13.238;2023-07-29T12:59:03;4.93;;;4.45;;
6928;SDS011;3504;52.616;13.238;2023-07-29T13:04:04;4.32;;;3.95;;
6928;SDS011;3504;52.616;13.238;2023-07-29T13:09:05;3.88;;;3.58;;
6928;SDS011;3504;52.616;13.238;2023-07-29T13:14:08;3.60;;;3.20;;
6928;SDS011;3504;52.616;13.238;2023-07-29T13:19:09;3.72;;;3.42;;
6928;SDS011;3504;52.616;13.238;2023-07-29T13:24:09;3.22;;;2.45;;
6928;SDS011;3504;52.616;13.238;2023-07-29T13:29:10;2.17;;;2.08;;
6928;SDS011;3504;52.616;13.238;2023-07-29T13:34:10;2.33;;;1.70;;
6928;SDS011;3504;52.616;13.238;2023-07-29T13:39:11;2.20;;;2.10;;
6928;SDS011;3504;52.616;13.238;2023-07-29T13:44:11;2.00;;;1.80;;
6928;SDS011;3504;52.616;13.238;2023-07-29T13:49:12;1.83;;;1.70;;
6928;SDS011;3504;52.616;13.238;2023-07-29T13:54:12;3.15;;;1.60;;
6928;SDS011;3504;52.616;13.238;2023-07-29T13:59:13;1.83;;;1.73;;
6928;SDS011;3504;52.616;13.238;2023-07-29T14:04:13;2.95;;;1.88;;
6928;SDS011;3504;52.616;13.238;2023-07-29T14:09:13;2.47;;;1.73;;
6928;SDS011;3504;52.616;13.238;2023-07-29T14:14:17;2.55;;;1.70;;
6928;SDS011;3504;52.616;13.238;2023-07-29T14:19:18;3.28;;;1.77;;
6928;SDS011;3504;52.616;13.238;2023-07-29T14:24:18;1.60;;;1.50;;
6928;SDS011;3504;52.616;13.238;2023-07-29T14:29:20;4.07;;;1.70;;
6928;SDS011;3504;52.616;13.238;2023-07-29T14:34:20;4.28;;;1.80;;
6928;SDS011;3504;52.616;13.238;2023-07-29T14:39:21;1.88;;;1.73;;
6928;SDS011;3504;52.616;13.238;2023-07-29T14:44:21;1.85;;;1.70;;
6928;SDS011;3504;52.616;13.238;2023-07-29T14:49:22;2.60;;;2.05;;
6928;SDS011;3504;52.616;13.238;2023-07-29T14:54:22;5.32;;;3.97;;
6928;SDS011;3504;52.616;13.238;2023-07-29T14:59:23;4.07;;;3.67;;
6928;SDS011;3504;52.616;13.238;2023-07-29T15:04:24;2.63;;;2.42;;
6928;SDS011;3504;52.616;13.238;2023-07-29T15:09:25;1.90;;;1.80;;
6928;SDS011;3504;52.616;13.238;2023-07-29T15:14:25;2.28;;;1.80;;
6928;SDS011;3504;52.616;13.238;2023-07-29T15:19:26;1.95;;;1.80;;
6928;SDS011;3504;52.616;13.238;2023-07-29T15:24:26;3.88;;;2.45;;
6928;SDS011;3504;52.616;13.238;2023-07-29T15:29:27;3.58;;;2.90;;
6928;SDS011;3504;52.616;13.238;2023-07-29T15:34:27;2.70;;;2.50;;
6928;SDS011;3504;52.616;13.238;2023-07-29T15:39:31;3.90;;;2.83;;
6928;SDS011;3504;52.616;13.238;2023-07-29T15:44:32;2.75;;;2.50;;
6928;SDS011;3504;52.616;13.238;2023-07-29T15:49:32;3.15;;;2.78;;
6928;SDS011;3504;52.616;13.238;2023-07-29T15:54:33;7.88;;;7.07;;
6928;SDS011;3504;52.616;13.238;2023-07-29T15:59:33;5.55;;;3.80;;
6928;SDS011;3504;52.616;13.238;2023-07-29T16:04:34;2.67;;;2.15;;
6928;SDS011;3504;52.616;13.238;2023-07-29T16:09:34;2.22;;;1.98;;
6928;SDS011;3504;52.616;13.238;2023-07-29T16:14:34;3.20;;;2.25;;
6928;SDS011;3504;52.616;13.238;2023-07-29T16:19:35;3.13;;;2.03;;
6928;SDS011;3504;52.616;13.238;2023-07-29T16:24:56;2.67;;;2.47;;
6928;SDS011;3504;52.616;13.238;2023-07-29T16:29:58;3.13;;;2.60;;
6928;SDS011;3504;52.616;13.238;2023-07-29T16:34:59;3.55;;;2.60;;
6928;SDS011;3504;52.616;13.238;2023-07-29T16:40:00;3.22;;;2.67;;
6928;SDS011;3504;52.616;13.238;2023-07-29T16:45:02;3.05;;;2.70;;
6928;SDS011;3504;52.616;13.238;2023-07-29T16:50:03;3.17;;;2.70;;
6928;SDS011;3504;52.616;13.238;2023-07-29T16:55:04;3.40;;;3.10;;
6928;SDS011;3504;52.616;13.238;2023-07-29T17:00:06;4.20;;;3.03;;
6928;SDS011;3504;52.616;13.238;2023-07-29T17:05:08;3.55;;;3.25;;
6928;SDS011;3504;52.616;13.238;2023-07-29T17:10:09;4.15;;;3.10;;
6928;SDS011;3504;52.616;13.238;2023-07-29T17:15:09;4.30;;;2.90;;
6928;SDS011;3504;52.616;13.238;2023-07-29T17:20:10;4.72;;;3.83;;
6928;SDS011;3504;52.616;13.238;2023-07-29T17:25:14;5.15;;;3.80;;
6928;SDS011;3504;52.616;13.238;2023-07-29T17:30:14;6.05;;;4.03;;
6928;SDS011;3504;52.616;13.238;2023-07-29T17:35:15;4.45;;;4.07;;
6928;SDS011;3504;52.616;13.238;2023-07-29T17:40:16;4.78;;;3.78;;
6928;SDS011;3504;52.616;13.238;2023-07-29T17:45:17;4.63;;;3.60;;
6928;SDS011;3504;52.616;13.238;2023-07-29T17:50:17;6.13;;;4.35;;
6928;SDS011;3504;52.616;13.238;2023-07-29T17:55:21;6.45;;;4.38;;
6928;SDS011;3504;52.616;13.238;2023-07-29T18:00:22;4.80;;;4.00;;
6928;SDS011;3504;52.616;13.238;2023-07-29T18:05:22;6.32;;;4.55;;
6928;SDS011;3504;52.616;13.238;2023-07-29T18:10:23;5.10;;;4.57;;
6928;SDS011;3504;52.616;13.238;2023-07-29T18:15:25;4.63;;;4.22;;
6928;SDS011;3504;52.616;13.238;2023-07-29T18:20:25;5.10;;;4.60;;
6928;SDS011;3504;52.616;13.238;2023-07-29T18:25:26;7.38;;;4.93;;
6928;SDS011;3504;52.616;13.238;2023-07-29T18:30:27;5.55;;;4.80;;
6928;SDS011;3504;52.616;13.238;2023-07-29T18:35:27;5.05;;;4.65;;
6928;SDS011;3504;52.616;13.238;2023-07-29T18:40:28;5.60;;;4.63;;
6928;SDS011;3504;52.616;13.238;2023-07-29T18:45:28;5.13;;;4.60;;
6928;SDS011;3504;52.616;13.238;2023-07-29T18:50:29;5.53;;;4.97;;
6928;SDS011;3504;52.616;13.238;2023-07-29T18:55:29;7.07;;;4.75;;
6928;SDS011;3504;52.616;13.238;2023-07-29T19:00:30;4.95;;;4.55;;
6928;SDS011;3504;52.616;13.238;2023-07-29T19:05:31;5.35;;;4.50;;
6928;SDS011;3504;52.616;13.238;2023-07-29T19:10:32;6.00;;;5.50;;
6928;SDS011;3504;52.616;13.238;2023-07-29T19:15:32;7.28;;;4.38;;
6928;SDS011;3504;52.616;13.238;2023-07-29T19:20:33;4.50;;;4.10;;
6928;SDS011;3504;52.616;13.238;2023-07-29T19:25:33;6.43;;;4.78;;
6928;SDS011;3504;52.616;13.238;2023-07-29T19:30:34;5.75;;;5.20;;
6928;SDS011;3504;52.616;13.238;2023-07-29T19:35:34;7.18;;;5.05;;
6928;SDS011;3504;52.616;13.238;2023-07-29T19:40:35;8.23;;;5.60;;
6928;SDS011;3504;52.616;13.238;2023-07-29T19:45:35;6.55;;;5.55;;
6928;SDS011;3504;52.616;13.238;2023-07-29T19:50:36;6.13;;;5.22;;
6928;SDS011;3504;52.616;13.238;2023-07-29T19:55:36;9.70;;;5.60;;
6928;SDS011;3504;52.616;13.238;2023-07-29T20:00:37;7.22;;;6.53;;
6928;SDS011;3504;52.616;13.238;2023-07-29T20:05:39;8.93;;;6.55;;
6928;SDS011;3504;52.616;13.238;2023-07-29T20:10:40;6.63;;;5.60;;
6928;SDS011;3504;52.616;13.238;2023-07-29T20:15:41;6.25;;;5.38;;
6928;SDS011;3504;52.616;13.238;2023-07-29T20:20:41;5.90;;;5.40;;
6928;SDS011;3504;52.616;13.238;2023-07-29T20:25:42;5.95;;;5.40;;
6928;SDS011;3504;52.616;13.238;2023-07-29T20:30:42;6.13;;;5.53;;
6928;SDS011;3504;52.616;13.238;2023-07-29T20:35:43;6.00;;;5.40;;
6928;SDS011;3504;52.616;13.238;2023-07-29T20:40:54;7.00;;;6.20;;
6928;SDS011;3504;52.616;13.238;2023-07-29T20:45:56;9.80;;;8.80;;
6928;SDS011;3504;52.616;13.238;2023-07-29T20:50:56;15.07;;;13.57;;
6928;SDS011;3504;52.616;13.238;2023-07-29T20:55:57;18.08;;;16.25;;
6928;SDS011;3504;52.616;13.238;2023-07-29T21:00:58;20.55;;;18.25;;
6928;SDS011;3504;52.616;13.238;2023-07-29T21:05:58;21.95;;;19.40;;
6928;SDS011;3504;52.616;13.238;2023-07-29T21:10:59;21.35;;;18.20;;
6928;SDS011;3504;52.616;13.238;2023-07-29T21:15:59;21.63;;;17.88;;
6928;SDS011;3504;52.616;13.238;2023-07-29T21:21:00;18.85;;;16.85;;
6928;SDS011;3504;52.616;13.238;2023-07-29T21:26:00;15.38;;;12.65;;
6928;SDS011;3504;52.616;13.238;2023-07-29T21:31:01;11.35;;;8.70;;
6928;SDS011;3504;52.616;13.238;2023-07-29T21:36:03;9.45;;;7.38;;
6928;SDS011;3504;52.616;13.238;2023-07-29T21:41:03;10.77;;;6.80;;
6928;SDS011;3504;52.616;13.238;2023-07-29T21:46:04;8.82;;;6.05;;
6928;SDS011;3504;52.616;13.238;2023-07-29T21:51:06;6.22;;;5.45;;
6928;SDS011;3504;52.616;13.238;2023-07-29T21:56:06;6.53;;;5.13;;
6928;SDS011;3504;52.616;13.238;2023-07-29T22:01:07;6.07;;;5.47;;
6928;SDS011;3504;52.616;13.238;2023-07-29T22:06:08;7.75;;;5.35;;
6928;SDS011;3504;52.616;13.238;2023-07-29T22:11:08;5.65;;;5.10;;
6928;SDS011;3504;52.616;13.238;2023-07-29T22:16:09;6.28;;;5.10;;
6928;SDS011;3504;52.616;13.238;2023-07-29T22:21:11;5.38;;;4.88;;
6928;SDS011;3504;52.616;13.238;2023-07-29T22:26:12;5.53;;;4.72;;
6928;SDS011;3504;52.616;13.238;2023-07-29T22:31:12;5.72;;;5.10;;
6928;SDS011;3504;52.616;13.238;2023-07-29T22:36:13;5.53;;;4.85;;
6928;SDS011;3504;52.616;13.238;2023-07-29T22:41:13;7.40;;;5.60;;
6928;SDS011;3504;52.616;13.238;2023-07-29T22:46:14;7.57;;;4.68;;
6928;SDS011;3504;52.616;13.238;2023-07-29T22:51:15;5.35;;;4.85;;
6928;SDS011;3504;52.616;13.238;2023-07-29T22:56:15;6.10;;;4.70;;
6928;SDS011;3504;52.616;13.238;2023-07-29T23:01:16;5.75;;;5.15;;
6928;SDS011;3504;52.616;13.238;2023-07-29T23:06:16;6.20;;;5.57;;
6928;SDS011;3504;52.616;13.238;2023-07-29T23:11:19;6.07;;;5.05;;
6928;SDS011;3504;52.616;13.238;2023-07-29T23:16:20;5.53;;;4.63;;
6928;SDS011;3504;52.616;13.238;2023-07-29T23:21:21;8.30;;;5.63;;
6928;SDS011;3504;52.616;13.238;2023-07-29T23:26:21;8.27;;;5.30;;
6928;SDS011;3504;52.616;13.238;2023-07-29T23:31:22;7.70;;;4.80;;
6928;SDS011;3504;52.616;13.238;2023-07-29T23:36:22;5.60;;;5.10;;
6928;SDS011;3504;52.616;13.238;2023-07-29T23:41:23;6.70;;;4.82;;
6928;SDS011;3504;52.616;13.238;2023-07-29T23:46:23;5.88;;;5.25;;
6928;SDS011;3504;52.616;13.238;2023-07-29T23:51:24;6.13;;;5.53;;
6928;SDS011;3504;52.616;13.238;2023-07-29T23:56:24;6.63;;;5.35;;
